Time;durP1;ratioP1;P1;durP2;ratioP2;P2;SDS_P1;SDS_P2;PMS_P1;PMS_P2;Temp;Humidity;BMP_temperature;BMP_pressure;BME280_temperature;BME280_humidity;BME280_pressure;Samples;Min_cycle;Max_cycle;Signal;HPM_P1;HPM_P2
2022/12/05 00:01:39;;;;;;;16.50;7.00;;;;;;;3.23;56.21;102063.63;5024199;28;20498;-72
2022/12/05 00:04:11;;;;;;;17.27;7.88;;;;;;;3.23;56.26;102066.22;5037118;28;20048;-71
2022/12/05 00:06:39;;;;;;;13.82;7.82;;;;;;;3.16;56.48;102061.00;5043265;28;20513;-69
2022/12/05 00:09:06;;;;;;;12.73;6.75;;;;;;;3.24;56.42;102057.59;5036399;28;20029;-68
2022/12/05 00:11:35;;;;;;;17.33;6.63;;;;;;;3.44;55.89;102061.25;5029876;28;20133;-70
2022/12/05 00:14:02;;;;;;;12.10;6.05;;;;;;;3.47;55.93;102063.00;5030349;28;20040;-71
2022/12/05 00:16:29;;;;;;;14.27;7.43;;;;;;;3.26;56.64;102059.34;5030865;28;20037;-70
2022/12/05 00:18:55;;;;;;;14.90;5.20;;;;;;;3.26;56.09;102059.34;5041152;28;20305;-67
2022/12/05 00:21:25;;;;;;;10.45;5.75;;;;;;;3.42;56.02;102057.81;5032409;28;20045;-67
2022/12/05 00:23:53;;;;;;;9.55;4.88;;;;;;;3.19;56.75;102050.66;5009266;28;20117;-68
2022/12/05 00:26:18;;;;;;;12.10;5.82;;;;;;;3.31;56.46;102054.25;5030908;28;20124;-69
2022/12/05 00:28:44;;;;;;;10.45;4.63;;;;;;;3.25;56.46;102046.41;5016956;28;20144;-67
2022/12/05 00:31:12;;;;;;;15.27;5.72;;;;;;;3.07;56.74;102042.81;5027033;28;20030;-68
2022/12/05 00:33:39;;;;;;;9.02;5.15;;;;;;;2.95;57.41;102047.84;5028312;28;20160;-68
2022/12/05 00:36:11;;;;;;;11.27;5.50;;;;;;;3.14;57.00;102036.00;5028501;28;20116;-69
2022/12/05 00:38:37;;;;;;;9.10;4.75;;;;;;;3.18;56.61;102046.38;5026471;28;20541;-69
2022/12/05 00:41:11;;;;;;;9.18;4.40;;;;;;;3.04;56.76;102037.59;5030845;28;20029;-69
2022/12/05 00:43:36;;;;;;;13.43;5.65;;;;;;;3.17;56.48;102036.88;5034735;28;20033;-68
2022/12/05 00:46:03;;;;;;;13.23;6.13;;;;;;;3.22;56.71;102036.91;5028759;28;20386;-68
2022/12/05 00:48:29;;;;;;;12.70;4.93;;;;;;;3.24;56.38;102049.84;5027956;28;20033;-70
2022/12/05 00:51:27;;;;;;;11.13;4.68;;;;;;;3.18;56.90;102045.50;5027073;28;20044;-69
2022/12/05 00:53:53;;;;;;;12.77;5.68;;;;;;;3.02;56.96;102039.31;5019648;28;20055;-68
2022/12/05 00:56:22;;;;;;;12.43;6.30;;;;;;;3.30;56.55;102044.78;5028405;28;20041;-65
2022/12/05 00:58:50;;;;;;;7.00;4.28;;;;;;;3.05;57.05;102038.50;5027469;28;20441;-66
2022/12/05 01:01:20;;;;;;;10.15;5.00;;;;;;;3.18;56.39;102037.75;5027912;28;20493;-66
2022/12/05 01:03:47;;;;;;;15.70;5.47;;;;;;;2.72;58.17;102039.84;5027524;28;20141;-66
2022/12/05 01:06:14;;;;;;;10.45;4.35;;;;;;;2.84;57.79;102039.13;5027170;28;20437;-65
2022/12/05 01:08:40;;;;;;;10.43;4.90;;;;;;;3.11;57.10;102039.41;5042438;28;20044;-64
2022/12/05 01:11:08;;;;;;;8.85;4.07;;;;;;;3.10;57.18;102027.34;5035979;28;20033;-66
2022/12/05 01:13:33;;;;;;;10.80;5.32;;;;;;;3.16;57.20;102032.56;5026672;28;20510;-66
2022/12/05 01:16:00;;;;;;;11.13;5.00;;;;;;;2.55;58.79;102039.63;5027102;28;20038;-65
2022/12/05 01:18:26;;;;;;;9.60;5.38;;;;;;;2.60;58.94;102040.59;5027809;28;20391;-69
2022/12/05 01:20:52;;;;;;;12.40;5.78;;;;;;;2.72;58.56;102045.88;5043450;28;20048;-66
2022/12/05 01:23:19;;;;;;;12.30;4.75;;;;;;;2.80;58.13;102043.41;5026580;28;20037;-66
2022/12/05 01:25:47;;;;;;;10.63;4.63;;;;;;;2.75;58.45;102040.72;5030488;28;20238;-66
2022/12/05 01:28:14;;;;;;;8.63;4.43;;;;;;;2.77;58.32;102041.63;5028603;28;20033;-70
2022/12/05 01:30:47;;;;;;;8.88;4.55;;;;;;;2.82;58.21;102043.41;5029214;28;20170;-72
2022/12/05 01:33:14;;;;;;;9.05;5.18;;;;;;;2.85;58.44;102043.44;5026079;28;20119;-65
2022/12/05 01:35:40;;;;;;;11.82;5.25;;;;;;;2.79;58.34;102048.53;5025974;28;20116;-66
2022/12/05 01:38:10;;;;;;;9.05;4.82;;;;;;;3.07;57.68;102044.50;5027323;28;20128;-66
2022/12/05 01:40:36;;;;;;;12.18;5.13;;;;;;;3.14;57.51;102049.78;5028518;28;20090;-65
2022/12/05 01:43:03;;;;;;;9.73;4.40;;;;;;;2.72;58.63;102043.28;5027163;28;20131;-65
2022/12/05 01:45:35;;;;;;;9.07;4.13;;;;;;;3.00;57.93;102046.16;5012338;28;20083;-66
2022/12/05 01:48:04;;;;;;;8.55;4.68;;;;;;;2.96;58.18;102044.44;5041301;28;20042;-65
2022/12/05 01:50:31;;;;;;;10.02;5.15;;;;;;;3.28;57.42;102036.97;5030165;28;20025;-66
2022/12/05 01:52:57;;;;;;;8.38;4.75;;;;;;;2.88;58.65;102036.59;5013150;28;20124;-67
2022/12/05 01:55:23;;;;;;;7.70;4.07;;;;;;;2.97;58.27;102035.81;5027078;28;20222;-66
2022/12/05 01:57:49;;;;;;;9.57;4.63;;;;;;;3.07;58.01;102024.75;5033867;28;20075;-66
2022/12/05 02:00:18;;;;;;;9.13;5.05;;;;;;;3.04;58.25;102032.44;5025209;28;20041;-66
2022/12/05 02:02:50;;;;;;;8.57;5.13;;;;;;;3.05;58.31;102028.16;5027762;28;20068;-68
2022/12/05 02:05:35;;;;;;;13.82;5.15;;;;;;;2.90;58.69;102039.19;5028299;28;20246;-69
2022/12/05 02:08:07;;;;;;;11.55;4.78;;;;;;;3.00;58.67;102025.50;5019457;28;20068;-67
2022/12/05 02:10:43;;;;;;;9.52;5.78;;;;;;;2.93;58.63;102023.72;5025665;28;20045;-66
2022/12/05 02:13:53;;;;;;;9.73;4.30;;;;;;;3.01;58.47;102028.97;5034942;28;20460;-67
2022/12/05 02:17:15;;;;;;;7.30;4.28;;;;;;;2.90;58.66;102024.56;5026624;28;20056;-67
2022/12/05 02:19:58;;;;;;;10.23;4.75;;;;;;;2.83;59.35;102037.41;5008145;28;20049;-67
2022/12/05 02:22:56;;;;;;;9.75;4.45;;;;;;;2.88;58.91;102027.97;5007364;28;20057;-68
2022/12/05 02:25:36;;;;;;;10.18;4.05;;;;;;;2.71;59.12;102027.78;5001264;28;20111;-67
2022/12/05 02:28:36;;;;;;;9.32;4.05;;;;;;;2.90;59.12;102028.84;5008341;28;20103;-67
2022/12/05 02:31:15;;;;;;;11.65;4.88;;;;;;;2.86;59.51;102030.53;5021169;28;20037;-67
2022/12/05 02:34:02;;;;;;;14.88;5.20;;;;;;;2.95;58.89;102017.72;5006808;28;20502;-66
2022/12/05 02:36:27;;;;;;;11.95;4.72;;;;;;;3.00;58.87;102019.47;5007967;28;20179;-66
2022/12/05 02:39:17;;;;;;;9.52;4.60;;;;;;;2.98;59.08;102011.75;5004926;28;20050;-67
2022/12/05 02:42:03;;;;;;;11.55;3.97;;;;;;;2.64;59.88;102028.56;5006186;28;20070;-68
2022/12/05 02:44:29;;;;;;;7.97;4.45;;;;;;;3.03;58.71;102028.13;5021623;28;20259;-67
2022/12/05 02:46:57;;;;;;;7.18;4.88;;;;;;;2.76;59.59;102029.56;5004776;28;20245;-68
2022/12/05 02:49:29;;;;;;;10.32;4.63;;;;;;;2.67;59.71;102032.06;5008047;28;20033;-68
2022/12/05 02:51:57;;;;;;;14.93;4.00;;;;;;;2.76;59.56;102032.16;4997012;28;20095;-67
2022/12/05 02:54:28;;;;;;;10.77;5.25;;;;;;;2.63;60.27;102032.88;5022270;28;20061;-66
2022/12/05 02:56:57;;;;;;;8.63;4.32;;;;;;;2.90;59.33;102028.84;5021825;28;20382;-66
2022/12/05 02:59:22;;;;;;;7.47;3.97;;;;;;;3.03;58.84;102030.72;5008634;28;20165;-65
2022/12/05 03:01:48;;;;;;;9.60;4.55;;;;;;;3.01;59.29;102034.16;5007452;28;20053;-66
2022/12/05 03:04:16;;;;;;;8.93;4.47;;;;;;;3.16;58.20;102026.53;5027609;28;20026;-65
2022/12/05 03:06:52;;;;;;;11.35;4.25;;;;;;;2.98;59.32;102028.09;5009604;28;20044;-67
2022/12/05 03:09:20;;;;;;;11.38;4.88;;;;;;;2.96;59.35;102032.38;5024159;28;20042;-67
2022/12/05 03:11:57;;;;;;;8.80;4.55;;;;;;;2.96;59.31;102026.34;5009223;28;20033;-66
2022/12/05 03:14:30;;;;;;;13.07;5.25;;;;;;;2.89;59.43;102022.84;5009810;28;20026;-65
2022/12/05 03:17:00;;;;;;;10.23;5.90;;;;;;;3.04;58.98;102019.53;5009779;28;21213;-66
2022/12/05 03:19:31;;;;;;;18.30;5.95;;;;;;;2.87;59.60;102013.34;5027668;28;20501;-66
2022/12/05 03:22:05;;;;;;;11.07;5.00;;;;;;;2.98;59.10;102011.75;5005047;28;20058;-65
2022/12/05 03:24:36;;;;;;;9.02;5.57;;;;;;;2.96;58.85;102018.59;5038910;28;20033;-66
2022/12/05 03:27:07;;;;;;;11.55;5.03;;;;;;;3.18;58.60;102020.53;5027252;28;20036;-67
2022/12/05 03:29:41;;;;;;;13.85;5.40;;;;;;;3.04;58.91;102022.09;5026499;28;20045;-65
2022/12/05 03:32:17;;;;;;;13.32;5.45;;;;;;;2.93;59.33;102015.97;5028633;28;20154;-66
2022/12/05 03:35:21;;;;;;;13.60;5.63;;;;;;;2.98;59.38;102024.66;5044893;28;20063;-66
2022/12/05 03:37:52;;;;;;;9.55;5.10;;;;;;;2.95;59.18;102019.44;5027898;28;20200;-72
2022/12/05 03:40:36;;;;;;;8.73;4.03;;;;;;;2.90;59.50;102015.94;5030127;28;20029;-66
2022/12/05 03:43:11;;;;;;;12.35;5.85;;;;;;;3.05;58.92;102021.28;5027711;28;20041;-68
2022/12/05 03:45:45;;;;;;;16.05;5.60;;;;;;;3.26;58.27;102022.31;5026427;28;20371;-65
2022/12/05 03:48:22;;;;;;;16.90;5.32;;;;;;;3.06;59.03;102019.53;5028296;28;20037;-66
2022/12/05 03:50:52;;;;;;;9.98;4.93;;;;;;;2.97;59.27;102015.16;5026948;28;20032;-68
2022/12/05 03:53:30;;;;;;;11.20;5.78;;;;;;;2.91;59.65;102026.31;5025988;28;20140;-65
2022/12/05 03:56:22;;;;;;;14.45;6.28;;;;;;;3.14;58.75;102023.94;5025309;28;20773;-72
2022/12/05 03:58:56;;;;;;;12.43;5.32;;;;;;;3.17;59.02;102029.13;5026400;28;20491;-72
2022/12/05 04:01:24;;;;;;;8.90;4.85;;;;;;;3.01;59.07;102027.25;5026751;28;20029;-70
2022/12/05 04:04:07;;;;;;;12.00;5.60;;;;;;;2.90;59.53;102019.38;5025547;28;20034;-66
2022/12/05 04:06:36;;;;;;;10.05;4.88;;;;;;;3.09;59.31;102023.03;5026471;28;20041;-69
2022/12/05 04:09:07;;;;;;;7.90;4.38;;;;;;;2.96;59.34;102029.78;5023650;28;20042;-70
2022/12/05 04:11:37;;;;;;;8.93;5.03;;;;;;;2.98;59.20;102022.94;5040269;28;20033;-70
2022/12/05 04:14:10;;;;;;;10.60;5.70;;;;;;;3.02;59.40;102013.47;5041060;28;20030;-69
2022/12/05 04:17:03;;;;;;;13.02;5.18;;;;;;;3.08;59.24;102020.44;5030439;28;20563;-64
2022/12/05 04:22:38;;;;;;;9.60;4.80;;;;;;;2.91;59.84;102017.66;5038275;28;20040;-71
2022/12/05 04:28:26;;;;;;;11.70;4.45;;;;;;;3.09;59.04;102023.03;5038714;28;20140;-72
2022/12/05 04:31:16;;;;;;;10.90;5.15;;;;;;;2.97;59.35;102026.34;5022710;28;20033;-74
2022/12/05 04:33:46;;;;;;;12.60;4.72;;;;;;;2.59;60.79;102031.09;5038940;28;20758;-72
2022/12/05 04:36:18;;;;;;;9.43;4.40;;;;;;;2.71;60.01;102031.25;5026844;28;20081;-73
2022/12/05 04:38:56;;;;;;;11.95;3.97;;;;;;;2.67;60.83;102037.22;5040294;28;20049;-71
2022/12/05 04:41:38;;;;;;;10.18;4.03;;;;;;;2.88;59.68;102031.41;5032857;28;20074;-73
2022/12/05 04:44:09;;;;;;;11.43;3.80;;;;;;;2.96;59.78;102041.84;5026108;28;20037;-71
2022/12/05 04:46:39;;;;;;;9.75;4.82;;;;;;;2.47;61.26;102039.56;5028725;28;20041;-72
2022/12/05 04:49:08;;;;;;;9.52;4.68;;;;;;;2.88;60.03;102035.72;5027810;28;20118;-73
2022/12/05 04:51:37;;;;;;;12.68;3.95;;;;;;;2.80;59.92;102035.66;5028570;28;23171;-73
2022/12/05 04:54:26;;;;;;;10.10;4.55;;;;;;;2.25;62.03;102038.41;5030592;28;20037;-72
2022/12/05 04:56:58;;;;;;;16.17;5.07;;;;;;;2.65;60.48;102038.91;5028813;28;20045;-71
2022/12/05 04:59:23;;;;;;;;;;;;;;;2.72;60.72;102040.72;5030281;28;20064;-71
2022/12/05 05:01:54;;;;;;;8.60;3.65;;;;;;;2.82;60.03;102040.81;5028119;28;20015;-71
2022/12/05 05:04:26;;;;;;;12.73;4.35;;;;;;;2.97;59.78;102030.66;5030694;28;20120;-76
2022/12/05 05:06:52;;;;;;;14.57;5.10;;;;;;;2.73;60.04;102037.31;5027753;28;20041;-69
2022/12/05 05:09:17;;;;;;;9.95;4.65;;;;;;;2.26;61.47;102032.41;5026627;28;20588;-71
2022/12/05 05:11:43;;;;;;;24.95;6.03;;;;;;;2.64;60.68;102032.00;5029189;28;20267;-69
2022/12/05 05:14:09;;;;;;;8.13;5.28;;;;;;;2.53;60.65;102033.59;5030701;28;20568;-68
2022/12/05 05:16:37;;;;;;;12.75;5.35;;;;;;;2.59;60.51;102038.84;5029359;28;20039;-68
2022/12/05 05:19:04;;;;;;;11.90;4.40;;;;;;;2.79;59.64;102033.03;5030621;28;20044;-68
2022/12/05 05:21:33;;;;;;;12.48;4.57;;;;;;;2.63;60.10;102038.03;5029834;28;20562;-68
2022/12/05 05:23:59;;;;;;;16.63;5.63;;;;;;;2.60;60.36;102031.94;5030032;28;20048;-67
2022/12/05 05:26:26;;;;;;;10.07;4.80;;;;;;;2.63;59.93;102043.19;5031818;28;20033;-72
2022/12/05 05:28:52;;;;;;;20.20;5.47;;;;;;;2.70;60.11;102039.81;5016592;28;20239;-74
2022/12/05 05:31:19;;;;;;;9.98;4.43;;;;;;;2.75;59.85;102045.91;5036227;28;20577;-68
2022/12/05 05:33:53;;;;;;;9.70;4.15;;;;;;;2.91;59.03;102046.97;5043408;28;20065;-67
2022/12/05 05:36:21;;;;;;;17.45;5.95;;;;;;;2.91;59.70;102046.06;5038503;28;20072;-65
2022/12/05 05:38:49;;;;;;;15.15;5.57;;;;;;;2.61;60.29;102041.44;5029706;28;20045;-74
2022/12/05 05:41:18;;;;;;;10.68;4.18;;;;;;;2.48;60.60;102046.44;5016287;28;20111;-73
2022/12/05 05:43:45;;;;;;;16.02;5.72;;;;;;;2.65;59.92;102043.22;5029827;28;20040;-69
2022/12/05 05:46:12;;;;;;;11.02;4.35;;;;;;;2.73;59.24;102036.41;5030575;28;20044;-66
2022/12/05 05:48:37;;;;;;;9.80;4.85;;;;;;;2.89;59.02;102040.03;5024614;28;22997;-68
2022/12/05 05:51:05;;;;;;;10.70;4.32;;;;;;;2.65;59.92;102044.09;5037417;28;20095;-70
2022/12/05 05:53:31;;;;;;;8.57;5.10;;;;;;;2.84;59.26;102046.88;5035765;28;20033;-70
2022/12/05 05:55:56;;;;;;;14.23;4.20;;;;;;;2.91;58.85;102039.22;5045430;28;20041;-66
2022/12/05 05:58:22;;;;;;;12.73;3.95;;;;;;;2.60;59.55;102035.44;5029482;28;20414;-66
2022/12/05 06:00:47;;;;;;;10.98;4.18;;;;;;;2.61;59.73;102042.31;5014522;28;20024;-66
2022/12/05 06:03:13;;;;;;;7.53;3.35;;;;;;;2.44;60.32;102043.81;5029892;28;20509;-68
2022/12/05 06:05:39;;;;;;;10.88;3.53;;;;;;;2.63;59.62;102042.34;5026921;28;20071;-69
2022/12/05 06:08:04;;;;;;;8.80;5.10;;;;;;;2.28;60.79;102043.59;5030656;28;20716;-73
2022/12/05 06:10:30;;;;;;;11.82;5.28;;;;;;;2.43;60.12;102048.09;5033608;28;20506;-71
2022/12/05 06:12:56;;;;;;;13.70;4.57;;;;;;;2.71;59.38;102039.00;5029810;28;20045;-67
2022/12/05 06:15:22;;;;;;;10.60;4.35;;;;;;;2.20;60.85;102052.09;5041408;28;20033;-69
2022/12/05 06:17:48;;;;;;;14.05;4.65;;;;;;;2.33;60.66;102044.56;5028646;28;20073;-67
2022/12/05 06:20:13;;;;;;;8.93;4.20;;;;;;;2.32;60.42;102050.53;5029601;28;20061;-66
2022/12/05 06:22:39;;;;;;;19.75;5.65;;;;;;;2.28;60.44;102042.75;5034330;28;20041;-68
2022/12/05 06:25:06;;;;;;;13.18;4.63;;;;;;;2.45;60.00;102042.97;5028348;28;20028;-68
2022/12/05 06:27:32;;;;;;;8.75;5.18;;;;;;;2.38;60.64;102056.63;5018553;28;20072;-66
2022/12/05 06:29:58;;;;;;;10.80;3.83;;;;;;;2.31;60.65;102053.97;5026654;28;20041;-67
2022/12/05 06:32:26;;;;;;;11.70;4.68;;;;;;;2.32;60.28;102050.53;5027379;28;20044;-67
2022/12/05 06:34:52;;;;;;;10.32;4.95;;;;;;;2.26;60.68;102054.75;5040829;28;20176;-67
2022/12/05 06:37:17;;;;;;;10.45;4.63;;;;;;;2.26;60.37;102047.88;5027305;28;20033;-66
2022/12/05 06:39:43;;;;;;;12.23;4.28;;;;;;;2.58;59.55;102047.44;5029944;28;20053;-65
2022/12/05 06:42:09;;;;;;;13.35;4.65;;;;;;;2.45;60.08;102056.75;5026736;28;20037;-72
2022/12/05 06:44:34;;;;;;;10.98;4.45;;;;;;;2.61;59.44;102054.34;5029628;28;20087;-71
2022/12/05 06:47:00;;;;;;;14.70;5.43;;;;;;;2.68;59.46;102054.44;5025154;28;20045;-68
2022/12/05 06:49:31;;;;;;;14.90;5.90;;;;;;;2.46;59.60;102052.44;5027068;28;20052;-67
2022/12/05 06:51:58;;;;;;;17.30;6.55;;;;;;;2.18;60.59;102054.66;5025163;28;20056;-68
2022/12/05 06:54:23;;;;;;;7.72;4.20;;;;;;;2.38;59.97;102052.34;5029491;28;20603;-68
2022/12/05 06:56:49;;;;;;;14.07;6.15;;;;;;;2.17;60.60;102054.63;5027225;28;20118;-69
2022/12/05 06:59:15;;;;;;;14.15;5.70;;;;;;;2.53;59.71;102056.81;5028378;28;20041;-69
2022/12/05 07:01:41;;;;;;;8.95;4.65;;;;;;;2.61;59.21;102052.63;5026940;28;20463;-70
2022/12/05 07:04:11;;;;;;;11.85;5.57;;;;;;;2.48;59.66;102061.06;5028547;28;20569;-64
2022/12/05 07:06:38;;;;;;;12.32;7.03;;;;;;;2.32;60.03;102053.13;5013994;28;20494;-71
2022/12/05 07:09:05;;;;;;;15.45;5.70;;;;;;;2.39;59.60;102051.50;5024396;28;21789;-66
2022/12/05 07:11:31;;;;;;;12.00;4.70;;;;;;;2.44;59.56;102054.13;5026688;28;20458;-66
2022/12/05 07:13:56;;;;;;;9.45;5.32;;;;;;;2.35;60.02;102045.44;5025586;28;20048;-66
2022/12/05 07:16:23;;;;;;;12.45;4.68;;;;;;;2.46;59.55;102049.84;5039943;28;20498;-69
2022/12/05 07:18:49;;;;;;;10.40;4.57;;;;;;;2.26;60.02;102044.44;5025196;28;20446;-68
2022/12/05 07:21:16;;;;;;;11.13;4.43;;;;;;;2.16;59.94;102043.44;5026453;28;20051;-67
2022/12/05 07:23:43;;;;;;;14.15;5.20;;;;;;;2.45;59.69;102050.72;5023886;28;20143;-66
2022/12/05 07:26:15;;;;;;;11.30;4.57;;;;;;;2.42;59.32;102046.38;5027023;28;20071;-65
2022/12/05 07:28:41;;;;;;;11.00;5.07;;;;;;;2.34;59.87;102042.84;4998814;28;20064;-65
2022/12/05 07:31:17;;;;;;;11.35;5.18;;;;;;;2.35;59.72;102035.13;5004989;28;20030;-66
2022/12/05 07:33:43;;;;;;;10.07;4.88;;;;;;;2.28;59.69;102038.44;5006284;28;20060;-66
2022/12/05 07:36:12;;;;;;;10.15;4.20;;;;;;;2.12;60.27;102039.09;5007796;28;20061;-66
2022/12/05 07:38:38;;;;;;;15.40;5.78;;;;;;;2.32;59.71;102042.81;5040227;28;20037;-67
2022/12/05 07:41:13;;;;;;;12.50;4.95;;;;;;;2.49;59.39;102045.63;5014438;28;20030;-67
2022/12/05 07:43:38;;;;;;;10.88;4.53;;;;;;;2.49;59.09;102042.16;5028616;28;20042;-66
2022/12/05 07:46:06;;;;;;;12.73;5.50;;;;;;;2.41;59.52;102041.19;5025733;28;20026;-67
2022/12/05 07:48:32;;;;;;;11.65;5.45;;;;;;;2.24;59.55;102030.66;5027546;28;20199;-65
2022/12/05 07:51:03;;;;;;;11.38;4.97;;;;;;;2.07;60.30;102033.88;5026678;28;20061;-67
2022/12/05 07:53:29;;;;;;;9.98;5.10;;;;;;;2.09;60.45;102024.44;5018523;28;20048;-66
2022/12/05 07:55:58;;;;;;;9.90;4.30;;;;;;;2.21;59.97;102031.47;5026426;28;20605;-67
2022/12/05 07:58:23;;;;;;;14.95;5.50;;;;;;;2.33;59.87;102026.50;5024071;28;20045;-66
2022/12/05 08:00:49;;;;;;;11.88;4.70;;;;;;;2.60;59.12;102026.78;5033517;28;20517;-68
2022/12/05 08:03:14;;;;;;;11.77;5.35;;;;;;;2.35;59.63;102027.38;5024990;28;20049;-67
2022/12/05 08:05:40;;;;;;;11.55;5.72;;;;;;;2.45;59.24;102030.94;5029674;28;20048;-66
2022/12/05 08:08:05;;;;;;;14.65;4.72;;;;;;;2.27;60.08;102033.28;5043641;28;20457;-67
2022/12/05 08:10:32;;;;;;;11.32;4.25;;;;;;;2.34;59.97;102030.78;5032227;28;20690;-67
2022/12/05 08:12:58;;;;;;;8.20;4.93;;;;;;;2.29;59.99;102034.19;5028396;28;20600;-67
2022/12/05 08:15:23;;;;;;;15.88;5.05;;;;;;;2.38;59.71;102038.56;5028850;28;20083;-68
2022/12/05 08:17:48;;;;;;;8.65;4.43;;;;;;;2.51;59.41;102040.44;5025665;28;20176;-67
2022/12/05 08:20:14;;;;;;;11.45;4.85;;;;;;;2.52;59.29;102040.47;5027080;28;20414;-67
2022/12/05 08:22:39;;;;;;;11.23;5.30;;;;;;;2.29;60.04;102045.34;5024617;28;20132;-68
2022/12/05 08:25:06;;;;;;;14.27;5.95;;;;;;;2.31;60.23;102048.81;5027246;28;20037;-67
2022/12/05 08:27:31;;;;;;;10.55;5.18;;;;;;;2.39;59.92;102050.63;5029108;28;20119;-68
2022/12/05 08:29:57;;;;;;;14.38;5.90;;;;;;;2.30;60.00;102044.50;5029334;28;20482;-68
2022/12/05 08:32:22;;;;;;;12.20;4.53;;;;;;;2.32;60.13;102049.69;5024822;28;20047;-69
2022/12/05 08:34:48;;;;;;;12.77;6.30;;;;;;;2.37;60.04;102049.75;5025530;28;20029;-68
2022/12/05 08:37:13;;;;;;;11.05;4.95;;;;;;;2.28;60.11;102053.06;5040181;28;20081;-67
2022/12/05 08:39:38;;;;;;;10.43;4.78;;;;;;;2.34;59.93;102058.31;5033259;28;20209;-68
2022/12/05 08:42:04;;;;;;;10.35;4.95;;;;;;;1.92;61.36;102057.72;5025013;28;20049;-68
2022/12/05 08:44:29;;;;;;;14.13;5.35;;;;;;;2.18;60.34;102057.25;5033658;28;20037;-67
2022/12/05 08:46:55;;;;;;;10.80;4.47;;;;;;;2.26;60.70;102059.91;5024795;28;21260;-68
2022/12/05 08:49:20;;;;;;;15.68;5.13;;;;;;;2.04;61.23;102069.06;5025486;28;20341;-68
2022/12/05 08:51:46;;;;;;;9.75;5.20;;;;;;;2.28;60.66;102051.34;5027603;28;20350;-68
2022/12/05 08:54:12;;;;;;;18.63;4.40;;;;;;;2.37;60.31;102058.34;5025115;28;20017;-66
2022/12/05 08:56:37;;;;;;;19.08;6.07;;;;;;;2.35;60.18;102060.94;5025139;28;20314;-67
2022/12/05 08:59:04;;;;;;;12.85;6.10;;;;;;;2.25;60.67;102053.03;5026476;28;20254;-67
2022/12/05 09:01:30;;;;;;;16.45;4.90;;;;;;;2.42;60.30;102055.81;5027219;28;20054;-68
2022/12/05 09:04:00;;;;;;;15.23;5.45;;;;;;;2.39;59.90;102063.53;5024487;28;20293;-67
2022/12/05 09:06:27;;;;;;;13.07;5.10;;;;;;;2.44;60.09;102061.88;5025331;28;20048;-67
2022/12/05 09:08:54;;;;;;;13.38;5.10;;;;;;;2.59;59.23;102053.47;5029474;28;20418;-67
2022/12/05 09:11:23;;;;;;;12.27;4.40;;;;;;;2.34;60.50;102058.31;5033963;28;20119;-67
2022/12/05 09:13:50;;;;;;;10.40;4.57;;;;;;;2.50;59.43;102051.63;5025985;28;20076;-67
2022/12/05 09:16:19;;;;;;;6.53;4.53;;;;;;;2.53;59.48;102054.25;5026933;28;20087;-68
2022/12/05 09:18:46;;;;;;;11.65;4.43;;;;;;;2.39;59.87;102050.63;5023252;28;20061;-66
2022/12/05 09:21:15;;;;;;;9.93;4.40;;;;;;;2.34;59.65;102059.16;5024881;28;20562;-67
2022/12/05 09:23:41;;;;;;;8.68;3.50;;;;;;;2.35;59.57;102055.75;5023292;28;20170;-67
2022/12/05 09:26:09;;;;;;;5.55;2.90;;;;;;;2.20;60.07;102052.97;5027017;28;20038;-67
2022/12/05 09:28:35;;;;;;;4.65;3.20;;;;;;;2.27;59.73;102049.63;5022875;28;20244;-68
2022/12/05 09:31:05;;;;;;;10.05;3.80;;;;;;;2.28;60.19;102055.66;5026119;28;20021;-67
2022/12/05 09:33:33;;;;;;;11.95;3.78;;;;;;;2.49;59.63;102057.66;5040657;28;20451;-67
2022/12/05 09:36:01;;;;;;;7.90;2.88;;;;;;;2.39;59.39;102060.94;5025692;28;20131;-66
2022/12/05 09:38:26;;;;;;;8.32;3.75;;;;;;;2.46;59.37;102060.19;5033019;28;20510;-67
2022/12/05 09:41:07;;;;;;;8.75;3.78;;;;;;;2.24;60.60;102057.34;5031786;28;20227;-68
2022/12/05 09:43:58;;;;;;;12.25;4.25;;;;;;;2.22;60.50;102059.03;5024189;28;20424;-67
2022/12/05 09:46:54;;;;;;;9.82;3.13;;;;;;;2.35;60.50;102063.50;5033216;28;20040;-67
2022/12/05 09:49:22;;;;;;;9.52;4.47;;;;;;;2.42;60.33;102061.88;5024727;28;20107;-67
2022/12/05 09:51:49;;;;;;;9.43;3.45;;;;;;;2.42;60.51;102055.81;5028728;28;20060;-66
2022/12/05 09:54:16;;;;;;;7.68;3.90;;;;;;;2.39;60.43;102055.78;5024203;28;20585;-68
2022/12/05 09:56:43;;;;;;;10.85;4.25;;;;;;;2.53;59.75;102056.81;5025048;28;20114;-67
2022/12/05 09:59:14;;;;;;;9.57;4.40;;;;;;;2.62;59.52;102054.34;5024521;28;20040;-67
2022/12/05 10:02:03;;;;;;;10.35;3.08;;;;;;;2.24;60.88;102056.44;5023716;28;20037;-67
2022/12/05 10:04:34;;;;;;;13.25;4.50;;;;;;;2.26;61.26;102060.78;5040930;28;20036;-67
2022/12/05 10:07:16;;;;;;;8.52;3.70;;;;;;;2.49;60.30;102062.81;5024753;28;20056;-67
2022/12/05 10:09:47;;;;;;;20.67;9.00;;;;;;;2.31;60.53;102055.66;5024609;28;20033;-66
2022/12/05 10:12:37;;;;;;;7.10;4.00;;;;;;;2.05;61.19;102047.59;5040533;28;20357;-67
2022/12/05 10:15:15;;;;;;;7.53;3.10;;;;;;;2.62;59.95;102046.59;5033659;28;20040;-69
2022/12/05 10:17:48;;;;;;;10.68;4.22;;;;;;;2.37;60.52;102049.75;5023449;28;20069;-68
2022/12/05 10:20:24;;;;;;;12.98;5.07;;;;;;;2.48;60.26;102055.91;5028027;28;20025;-67
2022/12/05 10:22:59;;;;;;;6.15;3.33;;;;;;;2.40;60.59;102058.41;5025030;28;20669;-68
2022/12/05 10:25:26;;;;;;;6.85;3.75;;;;;;;2.46;60.46;102050.72;5027068;28;20087;-68
2022/12/05 10:27:55;;;;;;;7.70;3.80;;;;;;;2.51;59.93;102048.19;5027085;28;20450;-68
2022/12/05 10:30:23;;;;;;;11.43;3.80;;;;;;;2.49;60.14;102047.34;5041929;28;20143;-68
2022/12/05 10:32:57;;;;;;;9.05;3.33;;;;;;;2.18;61.48;102046.06;5024543;28;20041;-67
2022/12/05 10:35:37;;;;;;;8.93;3.72;;;;;;;2.68;59.62;102038.94;5015779;28;20494;-68
2022/12/05 10:38:24;;;;;;;12.40;4.57;;;;;;;2.69;59.64;102045.84;5035975;28;20064;-68
2022/12/05 10:40:54;;;;;;;10.75;4.13;;;;;;;2.85;59.31;102048.63;5026730;28;20108;-67
2022/12/05 10:43:28;;;;;;;9.60;3.47;;;;;;;2.79;59.70;102041.66;5017861;28;20406;-68
2022/12/05 10:45:54;;;;;;;9.48;3.15;;;;;;;2.75;59.39;102042.47;5026406;28;20114;-68
2022/12/05 10:48:21;;;;;;;5.28;2.80;;;;;;;2.85;59.28;102040.88;5030664;28;20168;-67
2022/12/05 10:50:52;;;;;;;5.63;2.92;;;;;;;2.86;59.22;102037.41;5019722;28;20114;-68
2022/12/05 10:53:23;;;;;;;6.78;2.58;;;;;;;2.54;60.41;102041.38;5031628;28;20050;-68
2022/12/05 10:55:50;;;;;;;8.65;4.00;;;;;;;2.44;60.72;102038.66;5025423;28;20041;-68
2022/12/05 10:58:25;;;;;;;5.60;2.58;;;;;;;2.72;59.52;102030.38;5014179;28;20059;-67
2022/12/05 11:00:55;;;;;;;5.63;2.85;;;;;;;2.79;59.74;102035.63;5024329;28;20037;-68
2022/12/05 11:03:23;;;;;;;6.75;2.40;;;;;;;2.65;60.21;102026.00;5038147;28;20056;-68
2022/12/05 11:05:50;;;;;;;10.60;2.67;;;;;;;2.79;59.82;102031.31;5023875;28;20041;-69
2022/12/05 11:08:33;;;;;;;6.95;3.38;;;;;;;2.71;59.79;102027.78;5023728;28;20045;-68
2022/12/05 11:11:17;;;;;;;5.57;2.70;;;;;;;2.76;59.67;102026.13;5024615;28;20559;-68
2022/12/05 11:13:57;;;;;;;5.30;2.88;;;;;;;2.33;60.82;102029.06;5022435;28;20048;-68
2022/12/05 11:16:30;;;;;;;5.40;2.60;;;;;;;2.74;59.82;102023.53;5028036;28;20040;-68
2022/12/05 11:18:55;;;;;;;5.43;3.05;;;;;;;2.67;59.53;102028.63;5023448;28;20053;-68
2022/12/05 11:21:21;;;;;;;12.05;3.10;;;;;;;2.61;60.28;102025.97;5026942;28;20033;-69
2022/12/05 11:23:47;;;;;;;3.75;1.95;;;;;;;2.71;59.94;102012.28;5023879;28;20625;-69
2022/12/05 11:26:34;;;;;;;3.05;1.70;;;;;;;2.72;59.52;102020.06;5026034;28;20033;-68
2022/12/05 11:29:00;;;;;;;4.18;1.50;;;;;;;2.79;59.31;102014.97;5025477;28;20045;-68
2022/12/05 11:31:28;;;;;;;6.88;2.25;;;;;;;2.88;58.81;102007.31;5026729;28;20548;-68
2022/12/05 11:34:15;;;;;;;4.38;1.83;;;;;;;2.76;59.14;102011.50;5022704;28;20040;-68
2022/12/05 11:36:50;;;;;;;3.42;1.55;;;;;;;2.83;58.73;102006.41;5025157;28;20038;-67
2022/12/05 11:39:16;;;;;;;3.88;1.67;;;;;;;2.83;59.22;102007.28;5029680;28;20450;-69
2022/12/05 11:41:47;;;;;;;5.70;2.00;;;;;;;2.53;60.21;102002.63;5023606;28;20052;-68
2022/12/05 11:44:22;;;;;;;11.30;2.83;;;;;;;2.95;58.84;101996.19;5027604;28;20083;-68
2022/12/05 11:46:59;;;;;;;9.73;2.50;;;;;;;2.70;59.55;101998.53;5032586;28;20041;-68
2022/12/05 11:49:59;;;;;;;7.78;1.92;;;;;;;2.40;60.41;101993.00;5029649;28;20048;-68
2022/12/05 11:52:30;;;;;;;8.13;2.03;;;;;;;2.60;59.77;101983.81;5024637;28;20566;-69